sensor_id;sensor_type;location;lat;lon;timestamp;P1;durP1;ratioP1;P2;durP2;ratioP2
66546;SDS011;53400;50.364;14.874;2022-09-09T00:01:54;5.50;;;3.08;;
66546;SDS011;53400;50.364;14.874;2022-09-09T00:04:26;5.13;;;2.72;;
66546;SDS011;53400;50.364;14.874;2022-09-09T00:06:56;5.65;;;3.10;;
66546;SDS011;53400;50.364;14.874;2022-09-09T00:09:29;5.68;;;2.85;;
66546;SDS011;53400;50.364;14.874;2022-09-09T00:12:00;5.05;;;2.75;;
66546;SDS011;53400;50.364;14.874;2022-09-09T00:14:34;5.47;;;2.67;;
66546;SDS011;53400;50.364;14.874;2022-09-09T00:17:06;5.63;;;2.90;;
66546;SDS011;53400;50.364;14.874;2022-09-09T00:19:38;5.00;;;3.07;;
66546;SDS011;53400;50.364;14.874;2022-09-09T00:22:13;5.37;;;2.70;;
66546;SDS011;53400;50.364;14.874;2022-09-09T00:24:43;5.30;;;3.10;;
66546;SDS011;53400;50.364;14.874;2022-09-09T00:27:11;6.18;;;3.00;;
66546;SDS011;53400;50.364;14.874;2022-09-09T00:29:47;7.10;;;3.00;;
66546;SDS011;53400;50.364;14.874;2022-09-09T00:32:19;4.97;;;2.92;;
66546;SDS011;53400;50.364;14.874;2022-09-09T00:34:48;5.32;;;3.05;;
66546;SDS011;53400;50.364;14.874;2022-09-09T00:37:15;5.03;;;2.83;;
66546;SDS011;53400;50.364;14.874;2022-09-09T00:39:44;5.05;;;3.00;;
66546;SDS011;53400;50.364;14.874;2022-09-09T00:42:15;6.75;;;3.10;;
66546;SDS011;53400;50.364;14.874;2022-09-09T00:44:52;5.65;;;2.70;;
66546;SDS011;53400;50.364;14.874;2022-09-09T00:47:32;7.55;;;3.17;;
66546;SDS011;53400;50.364;14.874;2022-09-09T00:50:13;5.40;;;3.00;;
66546;SDS011;53400;50.364;14.874;2022-09-09T00:52:53;5.85;;;3.35;;
66546;SDS011;53400;50.364;14.874;2022-09-09T00:55:28;5.10;;;3.38;;
66546;SDS011;53400;50.364;14.874;2022-09-09T00:58:06;5.25;;;2.85;;
66546;SDS011;53400;50.364;14.874;2022-09-09T01:00:35;5.30;;;3.08;;
66546;SDS011;53400;50.364;14.874;2022-09-09T01:03:10;6.88;;;3.30;;
66546;SDS011;53400;50.364;14.874;2022-09-09T01:05:48;6.78;;;3.38;;
66546;SDS011;53400;50.364;14.874;2022-09-09T01:08:28;5.45;;;3.20;;
66546;SDS011;53400;50.364;14.874;2022-09-09T01:11:05;5.20;;;3.13;;
66546;SDS011;53400;50.364;14.874;2022-09-09T01:13:36;5.75;;;3.10;;
66546;SDS011;53400;50.364;14.874;2022-09-09T01:16:04;5.90;;;3.60;;
66546;SDS011;53400;50.364;14.874;2022-09-09T01:18:34;5.22;;;3.22;;
66546;SDS011;53400;50.364;14.874;2022-09-09T01:21:04;5.47;;;3.30;;
66546;SDS011;53400;50.364;14.874;2022-09-09T01:23:45;6.53;;;3.10;;
66546;SDS011;53400;50.364;14.874;2022-09-09T01:26:29;7.03;;;3.45;;
66546;SDS011;53400;50.364;14.874;2022-09-09T01:28:58;5.00;;;3.13;;
66546;SDS011;53400;50.364;14.874;2022-09-09T01:31:26;5.50;;;3.40;;
66546;SDS011;53400;50.364;14.874;2022-09-09T01:33:54;5.97;;;3.45;;
66546;SDS011;53400;50.364;14.874;2022-09-09T01:36:22;11.65;;;3.92;;
66546;SDS011;53400;50.364;14.874;2022-09-09T01:38:55;7.40;;;3.70;;
66546;SDS011;53400;50.364;14.874;2022-09-09T01:41:21;5.90;;;3.05;;
66546;SDS011;53400;50.364;14.874;2022-09-09T01:43:48;5.28;;;3.47;;
66546;SDS011;53400;50.364;14.874;2022-09-09T01:46:16;6.22;;;3.67;;
66546;SDS011;53400;50.364;14.874;2022-09-09T01:48:42;7.45;;;4.13;;
66546;SDS011;53400;50.364;14.874;2022-09-09T01:55:08;7.20;;;4.78;;
66546;SDS011;53400;50.364;14.874;2022-09-09T01:57:36;9.07;;;5.65;;
66546;SDS011;53400;50.364;14.874;2022-09-09T02:00:10;7.35;;;5.43;;
66546;SDS011;53400;50.364;14.874;2022-09-09T02:02:41;7.75;;;5.82;;
66546;SDS011;53400;50.364;14.874;2022-09-09T02:05:16;8.07;;;5.72;;
66546;SDS011;53400;50.364;14.874;2022-09-09T02:07:51;8.15;;;5.70;;
66546;SDS011;53400;50.364;14.874;2022-09-09T02:10:23;8.15;;;5.80;;
66546;SDS011;53400;50.364;14.874;2022-09-09T02:12:55;8.63;;;5.90;;
66546;SDS011;53400;50.364;14.874;2022-09-09T02:15:29;8.10;;;5.43;;
66546;SDS011;53400;50.364;14.874;2022-09-09T02:17:59;10.73;;;5.03;;
66546;SDS011;53400;50.364;14.874;2022-09-09T02:20:32;81.68;;;8.95;;
66546;SDS011;53400;50.364;14.874;2022-09-09T02:22:58;69.28;;;10.35;;
66546;SDS011;53400;50.364;14.874;2022-09-09T02:25:28;9.85;;;6.05;;
66546;SDS011;53400;50.364;14.874;2022-09-09T02:27:56;9.18;;;6.90;;
66546;SDS011;53400;50.364;14.874;2022-09-09T02:30:24;10.00;;;7.03;;
66546;SDS011;53400;50.364;14.874;2022-09-09T02:32:52;9.57;;;7.32;;
66546;SDS011;53400;50.364;14.874;2022-09-09T02:35:24;10.82;;;7.22;;
66546;SDS011;53400;50.364;14.874;2022-09-09T02:37:54;11.68;;;8.25;;
66546;SDS011;53400;50.364;14.874;2022-09-09T02:40:25;10.30;;;7.57;;
66546;SDS011;53400;50.364;14.874;2022-09-09T02:42:54;8.95;;;7.07;;
66546;SDS011;53400;50.364;14.874;2022-09-09T02:45:21;8.75;;;6.82;;
66546;SDS011;53400;50.364;14.874;2022-09-09T02:47:53;9.65;;;7.38;;
66546;SDS011;53400;50.364;14.874;2022-09-09T02:50:29;12.13;;;8.02;;
66546;SDS011;53400;50.364;14.874;2022-09-09T02:53:01;11.18;;;8.15;;
66546;SDS011;53400;50.364;14.874;2022-09-09T02:55:36;10.50;;;7.60;;
66546;SDS011;53400;50.364;14.874;2022-09-09T02:58:06;11.07;;;8.23;;
66546;SDS011;53400;50.364;14.874;2022-09-09T03:00:37;11.02;;;8.60;;
66546;SDS011;53400;50.364;14.874;2022-09-09T03:03:06;11.38;;;8.20;;
66546;SDS011;53400;50.364;14.874;2022-09-09T03:05:34;11.90;;;8.85;;
66546;SDS011;53400;50.364;14.874;2022-09-09T03:08:02;10.90;;;8.75;;
66546;SDS011;53400;50.364;14.874;2022-09-09T03:10:28;10.15;;;7.93;;
66546;SDS011;53400;50.364;14.874;2022-09-09T03:12:54;9.98;;;7.97;;
66546;SDS011;53400;50.364;14.874;2022-09-09T03:15:20;11.05;;;8.95;;
66546;SDS011;53400;50.364;14.874;2022-09-09T03:17:46;10.38;;;8.27;;
66546;SDS011;53400;50.364;14.874;2022-09-09T03:20:14;11.35;;;8.18;;
66546;SDS011;53400;50.364;14.874;2022-09-09T03:22:40;11.00;;;9.05;;
66546;SDS011;53400;50.364;14.874;2022-09-09T03:25:06;12.98;;;9.55;;
66546;SDS011;53400;50.364;14.874;2022-09-09T03:27:32;12.68;;;10.32;;
66546;SDS011;53400;50.364;14.874;2022-09-09T03:29:58;13.20;;;10.32;;
66546;SDS011;53400;50.364;14.874;2022-09-09T03:32:29;11.63;;;9.55;;
66546;SDS011;53400;50.364;14.874;2022-09-09T03:34:56;13.43;;;10.20;;
66546;SDS011;53400;50.364;14.874;2022-09-09T03:37:24;12.85;;;9.10;;
66546;SDS011;53400;50.364;14.874;2022-09-09T03:39:49;11.02;;;8.38;;
66546;SDS011;53400;50.364;14.874;2022-09-09T03:42:15;10.80;;;8.30;;
66546;SDS011;53400;50.364;14.874;2022-09-09T03:44:44;9.68;;;7.85;;
66546;SDS011;53400;50.364;14.874;2022-09-09T03:47:15;9.95;;;7.40;;
66546;SDS011;53400;50.364;14.874;2022-09-09T03:49:42;10.05;;;7.75;;
66546;SDS011;53400;50.364;14.874;2022-09-09T03:52:08;8.98;;;7.18;;
66546;SDS011;53400;50.364;14.874;2022-09-09T03:54:35;10.15;;;7.30;;
66546;SDS011;53400;50.364;14.874;2022-09-09T03:57:01;11.15;;;7.47;;
66546;SDS011;53400;50.364;14.874;2022-09-09T03:59:27;10.27;;;8.48;;
66546;SDS011;53400;50.364;14.874;2022-09-09T04:01:53;10.23;;;8.30;;
66546;SDS011;53400;50.364;14.874;2022-09-09T04:04:19;11.18;;;8.40;;
66546;SDS011;53400;50.364;14.874;2022-09-09T04:06:46;11.27;;;8.43;;
66546;SDS011;53400;50.364;14.874;2022-09-09T04:09:13;11.23;;;7.93;;
66546;SDS011;53400;50.364;14.874;2022-09-09T04:11:40;11.18;;;8.35;;
66546;SDS011;53400;50.364;14.874;2022-09-09T04:14:06;10.60;;;8.20;;
66546;SDS011;53400;50.364;14.874;2022-09-09T04:16:32;11.27;;;8.40;;
66546;SDS011;53400;50.364;14.874;2022-09-09T04:18:58;10.77;;;8.50;;
66546;SDS011;53400;50.364;14.874;2022-09-09T04:21:25;11.13;;;8.40;;
66546;SDS011;53400;50.364;14.874;2022-09-09T04:23:51;9.85;;;7.32;;
66546;SDS011;53400;50.364;14.874;2022-09-09T04:26:17;14.57;;;9.45;;
66546;SDS011;53400;50.364;14.874;2022-09-09T04:28:45;10.73;;;7.63;;
66546;SDS011;53400;50.364;14.874;2022-09-09T04:31:15;11.70;;;8.35;;
66546;SDS011;53400;50.364;14.874;2022-09-09T04:33:43;11.65;;;8.20;;
66546;SDS011;53400;50.364;14.874;2022-09-09T04:36:09;11.85;;;8.35;;
66546;SDS011;53400;50.364;14.874;2022-09-09T04:38:35;11.00;;;7.80;;
66546;SDS011;53400;50.364;14.874;2022-09-09T04:41:01;11.18;;;8.52;;
66546;SDS011;53400;50.364;14.874;2022-09-09T04:43:27;13.32;;;8.70;;
66546;SDS011;53400;50.364;14.874;2022-09-09T04:45:54;13.07;;;8.35;;
66546;SDS011;53400;50.364;14.874;2022-09-09T04:48:20;12.52;;;8.80;;
66546;SDS011;53400;50.364;14.874;2022-09-09T04:50:53;17.65;;;8.27;;
66546;SDS011;53400;50.364;14.874;2022-09-09T04:53:20;28.70;;;8.73;;
66546;SDS011;53400;50.364;14.874;2022-09-09T04:55:47;29.95;;;9.15;;
66546;SDS011;53400;50.364;14.874;2022-09-09T04:58:14;45.42;;;9.55;;
66546;SDS011;53400;50.364;14.874;2022-09-09T05:00:40;13.18;;;7.80;;
66546;SDS011;53400;50.364;14.874;2022-09-09T05:03:07;13.07;;;7.97;;
66546;SDS011;53400;50.364;14.874;2022-09-09T05:05:34;12.98;;;7.55;;
66546;SDS011;53400;50.364;14.874;2022-09-09T05:08:00;11.88;;;7.88;;
66546;SDS011;53400;50.364;14.874;2022-09-09T05:10:27;11.45;;;7.40;;
66546;SDS011;53400;50.364;14.874;2022-09-09T05:12:53;10.93;;;7.45;;
66546;SDS011;53400;50.364;14.874;2022-09-09T05:15:19;9.82;;;6.60;;
66546;SDS011;53400;50.364;14.874;2022-09-09T05:17:46;11.23;;;7.00;;
66546;SDS011;53400;50.364;14.874;2022-09-09T05:20:14;9.30;;;6.20;;
66546;SDS011;53400;50.364;14.874;2022-09-09T05:22:39;10.40;;;6.70;;
66546;SDS011;53400;50.364;14.874;2022-09-09T05:25:06;9.82;;;6.70;;
66546;SDS011;53400;50.364;14.874;2022-09-09T05:27:33;12.90;;;8.18;;
66546;SDS011;53400;50.364;14.874;2022-09-09T05:29:59;11.85;;;8.07;;
66546;SDS011;53400;50.364;14.874;2022-09-09T05:32:25;12.75;;;7.90;;
66546;SDS011;53400;50.364;14.874;2022-09-09T05:34:51;12.88;;;8.73;;
66546;SDS011;53400;50.364;14.874;2022-09-09T05:37:18;13.00;;;8.80;;
66546;SDS011;53400;50.364;14.874;2022-09-09T05:39:44;15.38;;;9.38;;
66546;SDS011;53400;50.364;14.874;2022-09-09T05:42:10;11.88;;;8.20;;
66546;SDS011;53400;50.364;14.874;2022-09-09T05:44:36;12.88;;;8.80;;
66546;SDS011;53400;50.364;14.874;2022-09-09T05:47:02;12.57;;;8.73;;
66546;SDS011;53400;50.364;14.874;2022-09-09T05:49:28;12.40;;;8.55;;
66546;SDS011;53400;50.364;14.874;2022-09-09T05:51:54;11.63;;;8.07;;
66546;SDS011;53400;50.364;14.874;2022-09-09T05:54:21;13.02;;;8.80;;
66546;SDS011;53400;50.364;14.874;2022-09-09T05:56:47;11.10;;;8.68;;
66546;SDS011;53400;50.364;14.874;2022-09-09T05:59:17;13.63;;;8.65;;
66546;SDS011;53400;50.364;14.874;2022-09-09T06:01:44;12.20;;;8.50;;
66546;SDS011;53400;50.364;14.874;2022-09-09T06:04:10;12.13;;;8.48;;
66546;SDS011;53400;50.364;14.874;2022-09-09T06:06:37;12.25;;;8.43;;
66546;SDS011;53400;50.364;14.874;2022-09-09T06:09:05;13.10;;;9.32;;
66546;SDS011;53400;50.364;14.874;2022-09-09T06:11:36;14.80;;;9.60;;
66546;SDS011;53400;50.364;14.874;2022-09-09T06:14:03;13.15;;;9.35;;
66546;SDS011;53400;50.364;14.874;2022-09-09T06:16:30;12.90;;;9.25;;
66546;SDS011;53400;50.364;14.874;2022-09-09T06:19:00;15.82;;;9.43;;
66546;SDS011;53400;50.364;14.874;2022-09-09T06:21:27;13.77;;;9.32;;
66546;SDS011;53400;50.364;14.874;2022-09-09T06:23:55;14.63;;;10.00;;
66546;SDS011;53400;50.364;14.874;2022-09-09T06:26:22;14.43;;;9.38;;
66546;SDS011;53400;50.364;14.874;2022-09-09T06:28:52;14.32;;;9.48;;
66546;SDS011;53400;50.364;14.874;2022-09-09T06:31:20;12.38;;;9.48;;
66546;SDS011;53400;50.364;14.874;2022-09-09T06:33:48;13.98;;;9.40;;
66546;SDS011;53400;50.364;14.874;2022-09-09T06:36:15;13.13;;;9.55;;
66546;SDS011;53400;50.364;14.874;2022-09-09T06:38:42;13.57;;;9.18;;
66546;SDS011;53400;50.364;14.874;2022-09-09T06:41:08;14.65;;;9.80;;
66546;SDS011;53400;50.364;14.874;2022-09-09T06:43:35;13.05;;;9.38;;
66546;SDS011;53400;50.364;14.874;2022-09-09T06:46:04;11.77;;;8.32;;
66546;SDS011;53400;50.364;14.874;2022-09-09T06:48:33;16.52;;;9.85;;
66546;SDS011;53400;50.364;14.874;2022-09-09T06:51:03;12.98;;;9.35;;
66546;SDS011;53400;50.364;14.874;2022-09-09T06:53:30;12.93;;;9.13;;
66546;SDS011;53400;50.364;14.874;2022-09-09T06:55:58;13.63;;;9.75;;
66546;SDS011;53400;50.364;14.874;2022-09-09T06:58:26;14.68;;;9.43;;
66546;SDS011;53400;50.364;14.874;2022-09-09T07:00:52;14.90;;;9.93;;
66546;SDS011;53400;50.364;14.874;2022-09-09T07:03:19;14.95;;;9.85;;
66546;SDS011;53400;50.364;14.874;2022-09-09T07:05:53;13.52;;;9.95;;
66546;SDS011;53400;50.364;14.874;2022-09-09T07:08:20;14.10;;;9.77;;
66546;SDS011;53400;50.364;14.874;2022-09-09T07:10:46;14.13;;;10.25;;
66546;SDS011;53400;50.364;14.874;2022-09-09T07:13:12;12.65;;;9.95;;
66546;SDS011;53400;50.364;14.874;2022-09-09T07:15:41;14.00;;;10.13;;
66546;SDS011;53400;50.364;14.874;2022-09-09T07:18:07;13.10;;;9.77;;
66546;SDS011;53400;50.364;14.874;2022-09-09T07:20:35;13.48;;;9.60;;
66546;SDS011;53400;50.364;14.874;2022-09-09T07:23:01;12.40;;;9.45;;
66546;SDS011;53400;50.364;14.874;2022-09-09T07:25:28;12.43;;;9.20;;
66546;SDS011;53400;50.364;14.874;2022-09-09T07:27:55;12.00;;;9.10;;
66546;SDS011;53400;50.364;14.874;2022-09-09T07:30:21;12.75;;;9.10;;
66546;SDS011;53400;50.364;14.874;2022-09-09T07:32:48;10.10;;;7.88;;
66546;SDS011;53400;50.364;14.874;2022-09-09T07:35:16;11.90;;;7.97;;
66546;SDS011;53400;50.364;14.874;2022-09-09T07:37:43;11.45;;;8.48;;
66546;SDS011;53400;50.364;14.874;2022-09-09T07:40:10;11.35;;;8.27;;
66546;SDS011;53400;50.364;14.874;2022-09-09T07:42:36;9.05;;;7.43;;
66546;SDS011;53400;50.364;14.874;2022-09-09T07:45:03;9.63;;;7.70;;
66546;SDS011;53400;50.364;14.874;2022-09-09T07:47:29;9.48;;;7.78;;
66546;SDS011;53400;50.364;14.874;2022-09-09T07:49:55;10.45;;;7.72;;
66546;SDS011;53400;50.364;14.874;2022-09-09T07:52:21;9.60;;;7.00;;
66546;SDS011;53400;50.364;14.874;2022-09-09T07:54:48;10.38;;;7.47;;
66546;SDS011;53400;50.364;14.874;2022-09-09T07:57:14;9.00;;;7.40;;
66546;SDS011;53400;50.364;14.874;2022-09-09T07:59:41;10.77;;;7.32;;
66546;SDS011;53400;50.364;14.874;2022-09-09T08:02:08;9.85;;;8.07;;
66546;SDS011;53400;50.364;14.874;2022-09-09T08:04:34;9.68;;;7.70;;
66546;SDS011;53400;50.364;14.874;2022-09-09T08:07:00;10.68;;;8.13;;
66546;SDS011;53400;50.364;14.874;2022-09-09T08:09:28;11.02;;;7.47;;
66546;SDS011;53400;50.364;14.874;2022-09-09T08:11:56;9.48;;;7.60;;
66546;SDS011;53400;50.364;14.874;2022-09-09T08:14:24;9.57;;;7.82;;
66546;SDS011;53400;50.364;14.874;2022-09-09T08:16:50;10.98;;;8.50;;
66546;SDS011;53400;50.364;14.874;2022-09-09T08:19:18;9.93;;;7.18;;
66546;SDS011;53400;50.364;14.874;2022-09-09T08:21:45;11.05;;;6.68;;
66546;SDS011;53400;50.364;14.874;2022-09-09T08:24:11;8.65;;;6.45;;
66546;SDS011;53400;50.364;14.874;2022-09-09T08:26:41;8.15;;;6.65;;
66546;SDS011;53400;50.364;14.874;2022-09-09T08:29:10;8.13;;;6.22;;
66546;SDS011;53400;50.364;14.874;2022-09-09T08:31:39;7.00;;;5.57;;
66546;SDS011;53400;50.364;14.874;2022-09-09T08:34:06;8.63;;;5.38;;
66546;SDS011;53400;50.364;14.874;2022-09-09T08:36:34;7.63;;;5.80;;
66546;SDS011;53400;50.364;14.874;2022-09-09T08:39:02;8.63;;;5.88;;
66546;SDS011;53400;50.364;14.874;2022-09-09T08:41:37;7.88;;;6.22;;
66546;SDS011;53400;50.364;14.874;2022-09-09T08:44:23;7.03;;;4.47;;
66546;SDS011;53400;50.364;14.874;2022-09-09T08:47:02;8.95;;;4.70;;
66546;SDS011;53400;50.364;14.874;2022-09-09T08:49:45;7.38;;;4.32;;
66546;SDS011;53400;50.364;14.874;2022-09-09T08:52:22;7.50;;;4.40;;
66546;SDS011;53400;50.364;14.874;2022-09-09T08:54:50;6.00;;;4.30;;
66546;SDS011;53400;50.364;14.874;2022-09-09T08:57:20;6.63;;;4.78;;
66546;SDS011;53400;50.364;14.874;2022-09-09T08:59:53;7.28;;;4.47;;
66546;SDS011;53400;50.364;14.874;2022-09-09T09:02:21;8.82;;;4.53;;
66546;SDS011;53400;50.364;14.874;2022-09-09T09:04:58;6.70;;;4.50;;
66546;SDS011;53400;50.364;14.874;2022-09-09T09:07:42;6.15;;;4.32;;
66546;SDS011;53400;50.364;14.874;2022-09-09T09:12:50;6.50;;;4.68;;
66546;SDS011;53400;50.364;14.874;2022-09-09T09:15:20;5.82;;;3.92;;
66546;SDS011;53400;50.364;14.874;2022-09-09T09:17:49;5.80;;;3.90;;
66546;SDS011;53400;50.364;14.874;2022-09-09T09:20:16;6.80;;;4.53;;
66546;SDS011;53400;50.364;14.874;2022-09-09T09:22:47;7.20;;;4.28;;
66546;SDS011;53400;50.364;14.874;2022-09-09T09:25:17;6.38;;;4.50;;
66546;SDS011;53400;50.364;14.874;2022-09-09T09:27:45;7.07;;;4.70;;
66546;SDS011;53400;50.364;14.874;2022-09-09T09:30:20;6.32;;;4.45;;
66546;SDS011;53400;50.364;14.874;2022-09-09T09:32:50;6.75;;;4.47;;
66546;SDS011;53400;50.364;14.874;2022-09-09T09:37:46;6.78;;;4.72;;
66546;SDS011;53400;50.364;14.874;2022-09-09T09:40:13;7.13;;;4.85;;
66546;SDS011;53400;50.364;14.874;2022-09-09T09:42:47;5.90;;;4.40;;
66546;SDS011;53400;50.364;14.874;2022-09-09T09:45:16;6.38;;;4.68;;
66546;SDS011;53400;50.364;14.874;2022-09-09T09:47:56;6.68;;;4.60;;
66546;SDS011;53400;50.364;14.874;2022-09-09T09:50:24;5.93;;;4.13;;
66546;SDS011;53400;50.364;14.874;2022-09-09T09:52:54;7.60;;;3.63;;
66546;SDS011;53400;50.364;14.874;2022-09-09T09:55:21;6.07;;;3.58;;
66546;SDS011;53400;50.364;14.874;2022-09-09T09:57:49;5.68;;;3.45;;
66546;SDS011;53400;50.364;14.874;2022-09-09T10:00:16;6.60;;;3.35;;
66546;SDS011;53400;50.364;14.874;2022-09-09T10:02:45;6.70;;;3.47;;
66546;SDS011;53400;50.364;14.874;2022-09-09T10:05:15;8.57;;;4.45;;
66546;SDS011;53400;50.364;14.874;2022-09-09T10:07:42;6.07;;;4.07;;
66546;SDS011;53400;50.364;14.874;2022-09-09T10:10:13;10.60;;;4.90;;
66546;SDS011;53400;50.364;14.874;2022-09-09T10:12:47;6.88;;;4.43;;
66546;SDS011;53400;50.364;14.874;2022-09-09T10:15:28;6.55;;;4.13;;
66546;SDS011;53400;50.364;14.874;2022-09-09T10:18:04;6.40;;;3.88;;
66546;SDS011;53400;50.364;14.874;2022-09-09T10:20:45;8.70;;;4.15;;
66546;SDS011;53400;50.364;14.874;2022-09-09T10:23:19;7.07;;;4.10;;
66546;SDS011;53400;50.364;14.874;2022-09-09T10:25:57;6.80;;;4.20;;
66546;SDS011;53400;50.364;14.874;2022-09-09T10:28:42;7.38;;;4.30;;
66546;SDS011;53400;50.364;14.874;2022-09-09T10:31:30;7.47;;;4.22;;
66546;SDS011;53400;50.364;14.874;2022-09-09T10:34:10;6.60;;;4.32;;
66546;SDS011;53400;50.364;14.874;2022-09-09T10:36:47;6.22;;;4.35;;
66546;SDS011;53400;50.364;14.874;2022-09-09T10:39:18;6.43;;;4.38;;
66546;SDS011;53400;50.364;14.874;2022-09-09T10:42:01;8.63;;;4.90;;
66546;SDS011;53400;50.364;14.874;2022-09-09T10:44:43;7.80;;;4.82;;
66546;SDS011;53400;50.364;14.874;2022-09-09T10:47:25;7.35;;;4.70;;
66546;SDS011;53400;50.364;14.874;2022-09-09T10:50:13;5.80;;;4.20;;
66546;SDS011;53400;50.364;14.874;2022-09-09T10:52:54;8.07;;;4.90;;
66546;SDS011;53400;50.364;14.874;2022-09-09T10:55:28;6.57;;;4.28;;
66546;SDS011;53400;50.364;14.874;2022-09-09T10:58:02;6.30;;;4.07;;
66546;SDS011;53400;50.364;14.874;2022-09-09T11:00:31;6.47;;;3.50;;
66546;SDS011;53400;50.364;14.874;2022-09-09T11:03:04;4.95;;;3.08;;
66546;SDS011;53400;50.364;14.874;2022-09-09T11:05:34;4.03;;;1.88;;
66546;SDS011;53400;50.364;14.874;2022-09-09T11:08:09;6.00;;;2.50;;
66546;SDS011;53400;50.364;14.874;2022-09-09T11:13:09;4.70;;;2.20;;
66546;SDS011;53400;50.364;14.874;2022-09-09T11:15:41;4.22;;;1.95;;
66546;SDS011;53400;50.364;14.874;2022-09-09T11:18:13;5.47;;;2.30;;
66546;SDS011;53400;50.364;14.874;2022-09-09T11:20:44;3.70;;;1.73;;
66546;SDS011;53400;50.364;14.874;2022-09-09T11:23:16;4.13;;;1.20;;
66546;SDS011;53400;50.364;14.874;2022-09-09T11:25:48;6.30;;;1.50;;
66546;SDS011;53400;50.364;14.874;2022-09-09T11:28:23;5.35;;;2.20;;
66546;SDS011;53400;50.364;14.874;2022-09-09T11:31:01;4.72;;;2.03;;
66546;SDS011;53400;50.364;14.874;2022-09-09T11:33:42;4.93;;;2.35;;
66546;SDS011;53400;50.364;14.874;2022-09-09T11:36:27;6.65;;;2.10;;
66546;SDS011;53400;50.364;14.874;2022-09-09T11:39:28;3.95;;;1.75;;
66546;SDS011;53400;50.364;14.874;2022-09-09T11:42:15;5.10;;;1.80;;
66546;SDS011;53400;50.364;14.874;2022-09-09T11:44:44;4.85;;;1.90;;
66546;SDS011;53400;50.364;14.874;2022-09-09T11:47:15;3.88;;;1.58;;
66546;SDS011;53400;50.364;14.874;2022-09-09T11:49:47;4.72;;;1.88;;
66546;SDS011;53400;50.364;14.874;2022-09-09T11:52:19;4.60;;;1.60;;
66546;SDS011;53400;50.364;14.874;2022-09-09T11:54:49;4.40;;;1.80;;
66546;SDS011;53400;50.364;14.874;2022-09-09T11:57:25;5.15;;;1.65;;
66546;SDS011;53400;50.364;14.874;2022-09-09T11:59:56;3.25;;;1.60;;
66546;SDS011;53400;50.364;14.874;2022-09-09T12:02:22;5.55;;;1.90;;
66546;SDS011;53400;50.364;14.874;2022-09-09T12:04:54;4.38;;;1.63;;
66546;SDS011;53400;50.364;14.874;2022-09-09T12:09:57;4.20;;;1.70;;
66546;SDS011;53400;50.364;14.874;2022-09-09T12:12:28;3.92;;;1.42;;
66546;SDS011;53400;50.364;14.874;2022-09-09T12:15:16;4.00;;;1.75;;
66546;SDS011;53400;50.364;14.874;2022-09-09T12:17:48;4.60;;;1.92;;
66546;SDS011;53400;50.364;14.874;2022-09-09T12:20:19;3.58;;;1.60;;
66546;SDS011;53400;50.364;14.874;2022-09-09T12:22:59;4.78;;;1.60;;
66546;SDS011;53400;50.364;14.874;2022-09-09T12:25:51;4.22;;;1.70;;
66546;SDS011;53400;50.364;14.874;2022-09-09T12:28:24;4.22;;;1.63;;
66546;SDS011;53400;50.364;14.874;2022-09-09T12:31:04;3.22;;;1.70;;
66546;SDS011;53400;50.364;14.874;2022-09-09T12:33:34;4.38;;;1.88;;
66546;SDS011;53400;50.364;14.874;2022-09-09T12:36:01;5.40;;;1.55;;
66546;SDS011;53400;50.364;14.874;2022-09-09T12:38:32;2.97;;;1.33;;
66546;SDS011;53400;50.364;14.874;2022-09-09T12:41:05;3.47;;;1.20;;
66546;SDS011;53400;50.364;14.874;2022-09-09T12:43:31;2.78;;;1.30;;
66546;SDS011;53400;50.364;14.874;2022-09-09T12:45:58;4.07;;;1.35;;
66546;SDS011;53400;50.364;14.874;2022-09-09T12:48:36;2.42;;;1.30;;
66546;SDS011;53400;50.364;14.874;2022-09-09T12:56:21;4.70;;;1.33;;
66546;SDS011;53400;50.364;14.874;2022-09-09T12:58:50;4.40;;;1.40;;
66546;SDS011;53400;50.364;14.874;2022-09-09T13:01:20;5.43;;;1.70;;
66546;SDS011;53400;50.364;14.874;2022-09-09T13:03:48;4.75;;;1.63;;
66546;SDS011;53400;50.364;14.874;2022-09-09T13:06:17;3.35;;;1.20;;
66546;SDS011;53400;50.364;14.874;2022-09-09T13:08:48;3.90;;;1.33;;
66546;SDS011;53400;50.364;14.874;2022-09-09T13:11:15;4.43;;;1.75;;
66546;SDS011;53400;50.364;14.874;2022-09-09T13:13:50;6.55;;;1.95;;
66546;SDS011;53400;50.364;14.874;2022-09-09T13:16:20;5.82;;;1.80;;
66546;SDS011;53400;50.364;14.874;2022-09-09T13:18:48;4.97;;;1.95;;
66546;SDS011;53400;50.364;14.874;2022-09-09T13:21:14;4.70;;;1.73;;
66546;SDS011;53400;50.364;14.874;2022-09-09T13:23:41;6.75;;;1.90;;
66546;SDS011;53400;50.364;14.874;2022-09-09T13:26:19;7.65;;;1.77;;
66546;SDS011;53400;50.364;14.874;2022-09-09T13:28:49;5.47;;;1.88;;
66546;SDS011;53400;50.364;14.874;2022-09-09T13:31:19;5.22;;;1.88;;
66546;SDS011;53400;50.364;14.874;2022-09-09T13:33:48;3.72;;;2.00;;
66546;SDS011;53400;50.364;14.874;2022-09-09T13:36:26;7.57;;;1.88;;
66546;SDS011;53400;50.364;14.874;2022-09-09T13:39:20;6.80;;;1.58;;
66546;SDS011;53400;50.364;14.874;2022-09-09T13:41:56;5.95;;;1.80;;
66546;SDS011;53400;50.364;14.874;2022-09-09T13:44:34;5.25;;;1.67;;
66546;SDS011;53400;50.364;14.874;2022-09-09T13:47:04;8.40;;;1.98;;
66546;SDS011;53400;50.364;14.874;2022-09-09T13:49:47;6.10;;;1.77;;
66546;SDS011;53400;50.364;14.874;2022-09-09T13:52:13;6.07;;;1.98;;
66546;SDS011;53400;50.364;14.874;2022-09-09T13:54:42;7.05;;;1.52;;
66546;SDS011;53400;50.364;14.874;2022-09-09T13:57:14;6.47;;;1.90;;
66546;SDS011;53400;50.364;14.874;2022-09-09T13:59:42;4.25;;;1.35;;
66546;SDS011;53400;50.364;14.874;2022-09-09T14:02:09;4.65;;;1.50;;
66546;SDS011;53400;50.364;14.874;2022-09-09T14:04:35;5.65;;;1.60;;
66546;SDS011;53400;50.364;14.874;2022-09-09T14:07:01;7.60;;;2.08;;
66546;SDS011;53400;50.364;14.874;2022-09-09T14:09:28;4.53;;;1.95;;
66546;SDS011;53400;50.364;14.874;2022-09-09T14:11:53;7.18;;;2.05;;
66546;SDS011;53400;50.364;14.874;2022-09-09T14:14:23;6.20;;;1.70;;
66546;SDS011;53400;50.364;14.874;2022-09-09T14:16:51;4.95;;;1.50;;
66546;SDS011;53400;50.364;14.874;2022-09-09T14:19:17;6.43;;;2.10;;
66546;SDS011;53400;50.364;14.874;2022-09-09T14:21:43;5.53;;;2.10;;
66546;SDS011;53400;50.364;14.874;2022-09-09T14:24:09;6.03;;;1.80;;
66546;SDS011;53400;50.364;14.874;2022-09-09T14:26:35;5.28;;;1.80;;
66546;SDS011;53400;50.364;14.874;2022-09-09T14:29:02;5.82;;;2.08;;
66546;SDS011;53400;50.364;14.874;2022-09-09T14:31:28;4.57;;;1.73;;
66546;SDS011;53400;50.364;14.874;2022-09-09T14:33:56;5.80;;;2.15;;
66546;SDS011;53400;50.364;14.874;2022-09-09T14:36:22;4.95;;;1.88;;
66546;SDS011;53400;50.364;14.874;2022-09-09T14:38:49;5.72;;;1.98;;
66546;SDS011;53400;50.364;14.874;2022-09-09T14:41:16;5.78;;;2.50;;
66546;SDS011;53400;50.364;14.874;2022-09-09T14:43:44;4.85;;;1.90;;
66546;SDS011;53400;50.364;14.874;2022-09-09T14:46:12;4.38;;;1.90;;
66546;SDS011;53400;50.364;14.874;2022-09-09T14:48:39;3.78;;;1.83;;
66546;SDS011;53400;50.364;14.874;2022-09-09T14:51:12;7.22;;;2.05;;
66546;SDS011;53400;50.364;14.874;2022-09-09T14:53:41;5.57;;;1.95;;
66546;SDS011;53400;50.364;14.874;2022-09-09T14:56:08;6.28;;;2.00;;
66546;SDS011;53400;50.364;14.874;2022-09-09T14:58:36;5.28;;;1.80;;
66546;SDS011;53400;50.364;14.874;2022-09-09T15:01:06;5.93;;;2.17;;
66546;SDS011;53400;50.364;14.874;2022-09-09T15:03:35;4.65;;;1.60;;
66546;SDS011;53400;50.364;14.874;2022-09-09T15:06:05;5.40;;;1.90;;